Terminal Aerodrome Forecast
Issued by NWS

Home | Current Version | Previous Version | Text Only | Print | Product List | Glossary On
Versions: 1 2 3 4 5 6 7 8 9 10 11 12 13 14 15 16 17 18 19 20 21 22
000
FTUS43 KGRR 280500 RRA
TAFMKG
TAF
KMKG 280544Z 2806/2906 35012KT P6SM SCT015 BKN050
      TEMPO 2806/2809 BKN015
     FM280900 35012KT P6SM BKN050
     FM281500 36012G20KT P6SM BKN040
     FM282300 31010KT P6SM FEW250=

USA.gov is the U.S. government's official web portal to all federal, state and local government web resources and services.